Time;durP1;ratioP1;P1;durP2;ratioP2;P2;SDS_P1;SDS_P2;PMS_P1;PMS_P2;Temp;Humidity;BMP_temperature;BMP_pressure;BME280_temperature;BME280_humidity;BME280_pressure;Samples;Min_cycle;Max_cycle;Signal;HPM_P1;HPM_P2
2022/12/13 00:02:08;;;;;;;;;;;;;;;-147.11;100.00;61570.13;5072174;28;19961;-53
2022/12/13 00:04:33;;;;;;;;;;;;;;;-147.11;100.00;61570.13;5068274;28;19943;-52
2022/12/13 00:06:59;;;;;;;;;;;;;;;-147.11;100.00;61570.13;5074222;28;20007;-52
2022/12/13 00:09:24;;;;;;;;;;;;;;;-147.11;100.00;61570.13;5066346;28;20039;-53
2022/12/13 00:11:51;;;;;;;;;;;;;;;-147.11;100.00;61570.13;5067994;28;19916;-53
2022/12/13 00:14:16;;;;;;;;;;;;;;;-147.11;100.00;61570.13;5071810;28;19916;-52
2022/12/13 00:16:46;;;;;;;;;;;;;;;-147.11;100.00;61570.13;5070522;28;19931;-52
2022/12/13 00:19:11;;;;;;;;;;;;;;;-147.11;100.00;61570.13;5069058;28;19916;-52
2022/12/13 00:21:37;;;;;;;;;;;;;;;-147.11;100.00;61570.13;5070565;28;19935;-52
2022/12/13 00:24:04;;;;;;;;;;;;;;;-147.11;100.00;61570.13;5069136;28;20402;-53
2022/12/13 00:26:31;;;;;;;;;;;;;;;-147.11;100.00;61570.13;5070268;28;19955;-53
2022/12/13 00:29:00;;;;;;;;;;;;;;;-147.11;100.00;61570.13;5069108;28;19966;-52
2022/12/13 00:31:25;;;;;;;;;;;;;;;-147.11;100.00;61570.13;5064943;28;19924;-52
2022/12/13 00:33:51;;;;;;;;;;;;;;;-147.11;100.00;61570.13;5073964;28;19916;-53
2022/12/13 00:36:16;;;;;;;;;;;;;;;-147.11;100.00;61570.13;5073222;28;19923;-54
2022/12/13 00:38:42;;;;;;;;;;;;;;;-147.11;100.00;61570.13;5067097;28;19935;-52
2022/12/13 00:41:11;;;;;;;;;;;;;;;-147.11;100.00;61570.13;5071602;28;19991;-52
2022/12/13 00:43:37;;;;;;;;;;;;;;;-147.11;100.00;61570.13;5067410;28;20457;-52
2022/12/13 00:46:02;;;;;;;;;;;;;;;-147.11;100.00;61570.13;5076691;28;19999;-53
2022/12/13 00:48:27;;;;;;;;;;;;;;;-147.11;100.00;61570.13;5070745;28;19916;-53
2022/12/13 00:50:53;;;;;;;;;;;;;;;-147.11;100.00;61570.13;5071295;28;19916;-54
2022/12/13 00:53:18;;;;;;;;;;;;;;;-147.11;100.00;61570.13;5070209;28;19960;-52
2022/12/13 00:55:43;;;;;;;;;;;;;;;-147.11;100.00;61570.13;5066569;28;19931;-53
2022/12/13 00:58:09;;;;;;;;;;;;;;;-147.11;100.00;61570.13;5066306;28;19921;-52
2022/12/13 01:00:34;;;;;;;;;;;;;;;-147.11;100.00;61570.13;5060295;28;20590;-52
2022/12/13 01:03:18;;;;;;;;;;;;;;;-147.11;100.00;61570.13;5066143;28;19920;-53
2022/12/13 01:05:44;;;;;;;;;;;;;;;-147.11;100.00;61570.13;5064837;28;20013;-52
2022/12/13 01:08:09;;;;;;;;;;;;;;;-147.11;100.00;61570.13;5068818;28;20030;-53
2022/12/13 01:10:34;;;;;;;;;;;;;;;-147.11;100.00;61570.13;5070859;28;20474;-52
2022/12/13 01:13:00;;;;;;;;;;;;;;;-147.11;100.00;61570.13;5069144;28;19930;-53
2022/12/13 01:15:25;;;;;;;;;;;;;;;-147.11;100.00;61570.13;5066594;28;19921;-52
2022/12/13 01:17:51;;;;;;;;;;;;;;;-147.11;100.00;61570.13;5071716;28;19917;-52
2022/12/13 01:20:16;;;;;;;;;;;;;;;-147.11;100.00;61570.13;5069735;28;19917;-52
2022/12/13 01:22:41;;;;;;;;;;;;;;;-147.11;100.00;61570.13;5069130;28;19927;-52
2022/12/13 01:25:07;;;;;;;;;;;;;;;-147.11;100.00;61570.13;5069798;28;19927;-53
2022/12/13 01:27:32;;;;;;;;;;;;;;;-147.11;100.00;61570.13;5053611;28;19935;-56
2022/12/13 01:29:57;;;;;;;;;;;;;;;-147.11;100.00;61570.13;5071249;28;19935;-53
2022/12/13 01:32:23;;;;;;;;;;;;;;;-147.11;100.00;61570.13;5069661;28;19919;-52
2022/12/13 01:34:48;;;;;;;;;;;;;;;-147.11;100.00;61570.13;5071327;28;19955;-55
2022/12/13 01:37:13;;;;;;;;;;;;;;;-147.11;100.00;61570.13;5070613;28;19920;-53
2022/12/13 01:39:39;;;;;;;;;;;;;;;-147.11;100.00;61570.13;5051240;28;19924;-57
2022/12/13 01:42:04;;;;;;;;;;;;;;;-147.11;100.00;61570.13;5069401;28;20374;-56
2022/12/13 01:44:48;;;;;;;;;;;;;;;-147.11;100.00;61570.13;5071208;28;19927;-53
2022/12/13 01:47:15;;;;;;;;;;;;;;;-147.11;100.00;61570.13;5068507;28;19916;-53
2022/12/13 01:49:40;;;;;;;;;;;;;;;-147.11;100.00;61570.13;5071555;28;19916;-56
2022/12/13 01:52:08;;;;;;;;;;;;;;;-147.11;100.00;61570.13;5070765;28;19931;-53
2022/12/13 01:54:36;;;;;;;;;;;;;;;-147.11;100.00;61570.13;5072667;28;19959;-54
2022/12/13 01:57:03;;;;;;;;;;;;;;;-147.11;100.00;61570.13;5077304;28;19912;-53
2022/12/13 01:59:28;;;;;;;;;;;;;;;-147.11;100.00;61570.13;5076229;28;19912;-53
2022/12/13 02:01:54;;;;;;;;;;;;;;;-147.11;100.00;61570.13;5082060;28;19920;-52
2022/12/13 02:04:25;;;;;;;;;;;;;;;-147.11;100.00;61570.13;5069395;28;19966;-53
2022/12/13 02:06:51;;;;;;;;;;;;;;;-147.11;100.00;61570.13;5059941;28;19970;-53
2022/12/13 02:09:17;;;;;;;;;;;;;;;-147.11;100.00;61570.13;5070716;28;19920;-53
2022/12/13 02:11:44;;;;;;;;;;;;;;;-147.11;100.00;61570.13;5072972;28;19920;-55
2022/12/13 02:14:09;;;;;;;;;;;;;;;-147.11;100.00;61570.13;5072511;28;20015;-55
2022/12/13 02:16:43;;;;;;;;;;;;;;;-147.11;100.00;61570.13;5074901;28;20007;-52
2022/12/13 02:19:08;;;;;;;;;;;;;;;-147.11;100.00;61570.13;5071470;28;19921;-53
2022/12/13 02:21:53;;;;;;;;;;;;;;;-147.11;100.00;61570.13;5071549;28;19916;-54
2022/12/13 02:24:18;;;;;;;;;;;;;;;-147.11;100.00;61570.13;5073832;28;19931;-52
2022/12/13 02:27:02;;;;;;;;;;;;;;;-147.11;100.00;61570.13;5075056;28;19921;-53
2022/12/13 02:29:33;;;;;;;;;;;;;;;-147.11;100.00;61570.13;5075896;28;19917;-54
2022/12/13 02:32:17;;;;;;;;;;;;;;;-147.11;100.00;61570.13;5077133;28;19924;-52
2022/12/13 02:34:48;;;;;;;;;;;;;;;-147.11;100.00;61570.13;5072239;28;19924;-55
2022/12/13 02:37:22;;;;;;;;;;;;;;;-147.11;100.00;61570.13;5068806;28;19969;-55
2022/12/13 02:39:56;;;;;;;;;;;;;;;-147.11;100.00;61570.13;5067495;28;19932;-53
2022/12/13 02:42:24;;;;;;;;;;;;;;;-147.11;100.00;61570.13;5067930;28;19962;-56
2022/12/13 02:44:54;;;;;;;;;;;;;;;-147.11;100.00;61570.13;5073842;28;19916;-53
2022/12/13 02:47:24;;;;;;;;;;;;;;;-147.11;100.00;61570.13;5071286;28;20276;-53
2022/12/13 02:49:51;;;;;;;;;;;;;;;-147.11;100.00;61570.13;5072060;28;19920;-53
2022/12/13 02:52:19;;;;;;;;;;;;;;;-147.11;100.00;61570.13;5076038;28;19920;-53
2022/12/13 02:54:44;;;;;;;;;;;;;;;-147.11;100.00;61570.13;5072032;28;19974;-52
2022/12/13 02:57:29;;;;;;;;;;;;;;;-147.11;100.00;61570.13;5071565;28;20367;-53
2022/12/13 02:59:55;;;;;;;;;;;;;;;-147.11;100.00;61570.13;5072993;28;19916;-52
2022/12/13 03:02:26;;;;;;;;;;;;;;;-147.11;100.00;61570.13;5070757;28;19936;-54
2022/12/13 03:08:00;;;;;;;;;;;;;;;-147.11;100.00;61570.13;5078085;28;19998;-53
2022/12/13 03:10:32;;;;;;;;;;;;;;;-147.11;100.00;61570.13;5073099;28;20429;-53
2022/12/13 03:15:48;;;;;;;;;;;;;;;-147.11;100.00;61570.13;5067743;28;19927;-52
2022/12/13 03:18:17;;;;;;;;;;;;;;;-147.11;100.00;61570.13;5076034;28;19912;-53
2022/12/13 03:20:47;;;;;;;;;;;;;;;-147.11;100.00;61570.13;5070581;28;19916;-54
2022/12/13 03:23:13;;;;;;;;;;;;;;;-147.11;100.00;61570.13;5071557;28;20051;-52
2022/12/13 03:25:38;;;;;;;;;;;;;;;-147.11;100.00;61570.13;5072111;28;20015;-53
2022/12/13 03:28:03;;;;;;;;;;;;;;;-147.11;100.00;61570.13;5071673;28;19920;-52
2022/12/13 03:30:30;;;;;;;;;;;;;;;-147.11;100.00;61570.13;5074075;28;19912;-57
2022/12/13 03:32:56;;;;;;;;;;;;;;;-147.11;100.00;61570.13;5065535;28;19931;-54
2022/12/13 03:35:21;;;;;;;;;;;;;;;-147.11;100.00;61570.13;5076724;28;19916;-52
2022/12/13 03:37:46;;;;;;;;;;;;;;;-147.11;100.00;61570.13;5065057;28;19924;-53
2022/12/13 03:40:12;;;;;;;;;;;;;;;-147.11;100.00;61570.13;5076401;28;19982;-55
2022/12/13 03:42:37;;;;;;;;;;;;;;;-147.11;100.00;61570.13;5071598;28;20489;-53
2022/12/13 03:45:03;;;;;;;;;;;;;;;-147.11;100.00;61570.13;5075600;28;19920;-53
2022/12/13 03:47:28;;;;;;;;;;;;;;;-147.11;100.00;61570.13;5069614;28;19934;-54
2022/12/13 03:49:54;;;;;;;;;;;;;;;-147.11;100.00;61570.13;5069663;28;19918;-52
2022/12/13 03:52:20;;;;;;;;;;;;;;;-147.11;100.00;61570.13;5068753;28;19924;-52
2022/12/13 03:54:45;;;;;;;;;;;;;;;-147.11;100.00;61570.13;5072072;28;19943;-54
2022/12/13 03:57:10;;;;;;;;;;;;;;;-147.11;100.00;61570.13;5069926;28;19920;-54
2022/12/13 03:59:36;;;;;;;;;;;;;;;-147.11;100.00;61570.13;5074098;28;19925;-52
2022/12/13 04:02:01;;;;;;;;;;;;;;;-147.11;100.00;61570.13;5076330;28;19919;-53
2022/12/13 04:04:26;;;;;;;;;;;;;;;-147.11;100.00;61570.13;5049102;28;20378;-54
2022/12/13 04:06:51;;;;;;;;;;;;;;;-147.11;100.00;61570.13;5073307;28;19916;-52
2022/12/13 04:09:17;;;;;;;;;;;;;;;-147.11;100.00;61570.13;5069409;28;19923;-53
2022/12/13 04:14:26;;;;;;;;;;;;;;;-147.11;100.00;61570.13;5072212;28;19922;-52
2022/12/13 04:16:51;;;;;;;;;;;;;;;-147.11;100.00;61570.13;5070669;28;20004;-55
2022/12/13 04:19:17;;;;;;;;;;;;;;;-147.11;100.00;61570.13;5072530;28;19920;-55
2022/12/13 04:21:42;;;;;;;;;;;;;;;-147.11;100.00;61570.13;5060949;22;20019;-60
2022/12/13 04:24:07;;;;;;;;;;;;;;;-147.11;100.00;61570.13;5042541;28;19933;-61
2022/12/13 04:26:33;;;;;;;;;;;;;;;-147.11;100.00;61570.13;5037210;28;19941;-62
2022/12/13 04:28:58;;;;;;;;;;;;;;;-147.11;100.00;61570.13;5037156;28;19957;-61
2022/12/13 04:31:23;;;;;;;;;;;;;;;-147.11;100.00;61570.13;5056703;28;20299;-60
2022/12/13 04:33:48;;;;;;;;;;;;;;;-147.11;100.00;61570.13;5053787;28;19962;-61
2022/12/13 04:36:18;;;;;;;;;;;;;;;-147.11;100.00;61570.13;5069223;28;20306;-61
2022/12/13 04:38:44;;;;;;;;;;;;;;;-147.11;100.00;61570.13;5063412;28;19920;-60
2022/12/13 04:41:14;;;;;;;;;;;;;;;-147.11;100.00;61570.13;5058195;28;19917;-62
2022/12/13 04:43:39;;;;;;;;;;;;;;;-147.11;100.00;61570.13;5067600;28;19928;-60
2022/12/13 04:46:04;;;;;;;;;;;;;;;-147.11;100.00;61570.13;5070070;28;19944;-62
2022/12/13 04:48:31;;;;;;;;;;;;;;;-147.11;100.00;61570.13;5069957;28;19912;-61
2022/12/13 04:50:56;;;;;;;;;;;;;;;-147.11;100.00;61570.13;5071114;28;19959;-62
2022/12/13 04:53:22;;;;;;;;;;;;;;;-147.11;100.00;61570.13;5063668;28;19960;-61
2022/12/13 04:55:47;;;;;;;;;;;;;;;-147.11;100.00;61570.13;5066378;28;20011;-61
2022/12/13 04:58:12;;;;;;;;;;;;;;;-147.11;100.00;61570.13;5067148;28;19916;-62
2022/12/13 05:00:39;;;;;;;;;;;;;;;-147.11;100.00;61570.13;5056580;28;19931;-62
2022/12/13 05:03:04;;;;;;;;;;;;;;;-147.11;100.00;61570.13;5069298;28;20019;-62
2022/12/13 05:05:29;;;;;;;;;;;;;;;-147.11;100.00;61570.13;5068707;28;20439;-62
2022/12/13 05:07:54;;;;;;;;;;;;;;;-147.11;100.00;61570.13;5069595;28;19924;-62
2022/12/13 05:10:20;;;;;;;;;;;;;;;-147.11;100.00;61570.13;5058404;28;19928;-63
2022/12/13 05:12:45;;;;;;;;;;;;;;;-147.11;100.00;61570.13;5068532;28;19939;-60
2022/12/13 05:15:10;;;;;;;;;;;;;;;-147.11;100.00;61570.13;5064565;28;19973;-62
2022/12/13 05:17:36;;;;;;;;;;;;;;;-147.11;100.00;61570.13;5056806;28;19921;-62
2022/12/13 05:20:01;;;;;;;;;;;;;;;-147.11;100.00;61570.13;5064772;28;20136;-62
2022/12/13 05:22:26;;;;;;;;;;;;;;;-147.11;100.00;61570.13;5065365;28;19921;-62
2022/12/13 05:24:52;;;;;;;;;;;;;;;-147.11;100.00;61570.13;5064743;28;19924;-60
2022/12/13 05:27:17;;;;;;;;;;;;;;;-147.11;100.00;61570.13;5064404;28;19921;-60
2022/12/13 05:29:43;;;;;;;;;;;;;;;-147.11;100.00;61570.13;5070225;28;19921;-62
2022/12/13 05:32:08;;;;;;;;;;;;;;;-147.11;100.00;61570.13;5059642;28;19920;-61
2022/12/13 05:34:33;;;;;;;;;;;;;;;-147.11;100.00;61570.13;5059925;28;19928;-59
2022/12/13 05:36:59;;;;;;;;;;;;;;;-147.11;100.00;61570.13;5060450;28;19928;-61
2022/12/13 05:39:24;;;;;;;;;;;;;;;-147.11;100.00;61570.13;5055154;28;19935;-63
2022/12/13 05:41:50;;;;;;;;;;;;;;;-147.11;100.00;61570.13;5038781;28;19963;-62
2022/12/13 05:44:15;;;;;;;;;;;;;;;-147.11;100.00;61570.13;5062699;28;19916;-60
2022/12/13 05:46:40;;;;;;;;;;;;;;;-147.11;100.00;61570.13;5063949;28;20015;-61
2022/12/13 05:49:06;;;;;;;;;;;;;;;-147.11;100.00;61570.13;5063696;28;19935;-62
2022/12/13 05:51:31;;;;;;;;;;;;;;;-147.11;100.00;61570.13;5067250;28;20015;-61
2022/12/13 05:53:56;;;;;;;;;;;;;;;-147.11;100.00;61570.13;5063643;28;19916;-60
2022/12/13 05:56:22;;;;;;;;;;;;;;;-147.11;100.00;61570.13;5058896;28;19993;-61
2022/12/13 05:58:47;;;;;;;;;;;;;;;-147.11;100.00;61570.13;5064552;28;20007;-63
2022/12/13 06:01:13;;;;;;;;;;;;;;;-147.11;100.00;61570.13;5059200;28;20024;-60
2022/12/13 06:03:39;;;;;;;;;;;;;;;-147.11;100.00;61570.13;5067383;28;20019;-61
2022/12/13 06:06:05;;;;;;;;;;;;;;;-147.11;100.00;61570.13;5064724;28;20025;-60
2022/12/13 06:08:31;;;;;;;;;;;;;;;-147.11;100.00;61570.13;5052722;28;19916;-58
2022/12/13 06:10:59;;;;;;;;;;;;;;;-147.11;100.00;61570.13;5055112;28;19927;-59
2022/12/13 06:13:24;;;;;;;;;;;;;;;-147.11;100.00;61570.13;5074587;28;19917;-61
2022/12/13 06:15:50;;;;;;;;;;;;;;;-147.11;100.00;61570.13;5062470;28;19931;-57
2022/12/13 06:18:15;;;;;;;;;;;;;;;-147.11;100.00;61570.13;5061872;28;19928;-61
2022/12/13 06:20:40;;;;;;;;;;;;;;;-147.11;100.00;61570.13;5066058;28;19927;-61
2022/12/13 06:23:06;;;;;;;;;;;;;;;-147.11;100.00;61570.13;5060405;28;19921;-63
2022/12/13 06:25:31;;;;;;;;;;;;;;;-147.11;100.00;61570.13;5069838;28;19921;-61
2022/12/13 06:27:56;;;;;;;;;;;;;;;-147.11;100.00;61570.13;5077677;28;19917;-62
2022/12/13 06:30:22;;;;;;;;;;;;;;;-147.11;100.00;61570.13;5068173;28;20338;-61
2022/12/13 06:32:50;;;;;;;;;;;;;;;-147.11;100.00;61570.13;5077490;28;20458;-61
2022/12/13 06:35:15;;;;;;;;;;;;;;;-147.11;100.00;61570.13;5062524;28;19921;-61
2022/12/13 06:37:41;;;;;;;;;;;;;;;-147.11;100.00;61570.13;5071601;28;19962;-61
2022/12/13 06:40:07;;;;;;;;;;;;;;;-147.11;100.00;61570.13;5070915;28;20406;-62
2022/12/13 06:42:32;;;;;;;;;;;;;;;-147.11;100.00;61570.13;5067273;28;19916;-62
2022/12/13 06:44:57;;;;;;;;;;;;;;;-147.11;100.00;61570.13;5075880;28;19970;-62
2022/12/13 06:47:24;;;;;;;;;;;;;;;-147.11;100.00;61570.13;5070714;28;19912;-63
2022/12/13 06:49:49;;;;;;;;;;;;;;;-147.11;100.00;61570.13;5054069;28;19971;-63
2022/12/13 06:52:14;;;;;;;;;;;;;;;-147.11;100.00;61570.13;5067612;28;19975;-61
2022/12/13 06:54:40;;;;;;;;;;;;;;;-147.11;100.00;61570.13;5071686;28;20290;-61
2022/12/13 06:57:05;;;;;;;;;;;;;;;-147.11;100.00;61570.13;5067519;28;19952;-61
2022/12/13 06:59:31;;;;;;;;;;;;;;;-147.11;100.00;61570.13;5071927;28;19984;-63
2022/12/13 07:01:56;;;;;;;;;;;;;;;-147.11;100.00;61570.13;5072376;28;20328;-63
2022/12/13 07:04:21;;;;;;;;;;;;;;;-147.11;100.00;61570.13;5042614;28;19927;-61
2022/12/13 07:06:46;;;;;;;;;;;;;;;-147.11;100.00;61570.13;5061266;28;19925;-62
2022/12/13 07:09:12;;;;;;;;;;;;;;;-147.11;100.00;61570.13;5076129;28;19920;-62
2022/12/13 07:11:37;;;;;;;;;;;;;;;-147.11;100.00;61570.13;5075005;28;19917;-62
2022/12/13 07:14:02;;;;;;;;;;;;;;;-147.11;100.00;61570.13;5074362;28;20383;-60
2022/12/13 07:16:28;;;;;;;;;;;;;;;-147.11;100.00;61570.13;5075164;28;19956;-63
2022/12/13 07:18:54;;;;;;;;;;;;;;;-147.11;100.00;61570.13;5077866;28;19965;-61
2022/12/13 07:21:19;;;;;;;;;;;;;;;-147.11;100.00;61570.13;5049053;28;20027;-63
2022/12/13 07:23:44;;;;;;;;;;;;;;;-147.11;100.00;61570.13;5080811;28;20290;-61
2022/12/13 07:26:10;;;;;;;;;;;;;;;-147.11;100.00;61570.13;5072578;28;19921;-63
2022/12/13 07:28:35;;;;;;;;;;;;;;;-147.11;100.00;61570.13;5072855;28;20345;-62
2022/12/13 07:31:01;;;;;;;;;;;;;;;-147.11;100.00;61570.13;5070514;28;19912;-59
2022/12/13 07:33:28;;;;;;;;;;;;;;;-147.11;100.00;61570.13;5053695;28;20015;-62
2022/12/13 07:36:08;;;;;;;;;;;;;;;-147.11;100.00;61570.13;5071603;28;19916;-61
2022/12/13 07:38:34;;;;;;;;;;;;;;;-147.11;100.00;61570.13;5073111;28;19924;-59
2022/12/13 07:40:59;;;;;;;;;;;;;;;-147.11;100.00;61570.13;5053086;28;19916;-59
2022/12/13 07:43:25;;;;;;;;;;;;;;;-147.11;100.00;61570.13;5069709;28;20315;-60
2022/12/13 07:45:50;;;;;;;;;;;;;;;-147.11;100.00;61570.13;5068614;28;19925;-60
2022/12/13 07:48:16;;;;;;;;;;;;;;;-147.11;100.00;61570.13;5070007;28;20498;-60
2022/12/13 07:50:42;;;;;;;;;;;;;;;-147.11;100.00;61570.13;5072538;28;19923;-60
2022/12/13 07:53:07;;;;;;;;;;;;;;;-147.11;100.00;61570.13;5069709;28;20360;-60
2022/12/13 07:55:33;;;;;;;;;;;;;;;-147.11;100.00;61570.13;5071838;28;20010;-58
2022/12/13 07:58:06;;;;;;;;;;;;;;;-147.11;100.00;61570.13;5071040;28;19947;-60
2022/12/13 08:00:32;;;;;;;;;;;;;;;-147.11;100.00;61570.13;5066591;28;19968;-58
2022/12/13 08:02:57;;;;;;;;;;;;;;;-147.11;100.00;61570.13;5070149;28;20344;-62
2022/12/13 08:05:23;;;;;;;;;;;;;;;-147.11;100.00;61570.13;5070791;28;19928;-61
2022/12/13 08:07:48;;;;;;;;;;;;;;;-147.11;100.00;61570.13;5075201;28;19924;-60
2022/12/13 08:10:13;;;;;;;;;;;;;;;-147.11;100.00;61570.13;5075950;28;19939;-60
2022/12/13 08:12:39;;;;;;;;;;;;;;;-147.11;100.00;61570.13;5070433;28;19921;-59
2022/12/13 08:15:04;;;;;;;;;;;;;;;-147.11;100.00;61570.13;5067947;28;20057;-60
2022/12/13 08:17:30;;;;;;;;;;;;;;;-147.11;100.00;61570.13;5074373;28;20306;-61
2022/12/13 08:19:55;;;;;;;;;;;;;;;-147.11;100.00;61570.13;5071657;28;20019;-61
2022/12/13 08:22:20;;;;;;;;;;;;;;;-147.11;100.00;61570.13;5073989;28;19963;-60
2022/12/13 08:24:45;;;;;;;;;;;;;;;-147.11;100.00;61570.13;5064477;28;20011;-59
2022/12/13 08:27:11;;;;;;;;;;;;;;;-147.11;100.00;61570.13;5075217;28;19985;-60
2022/12/13 08:29:36;;;;;;;;;;;;;;;-147.11;100.00;61570.13;5068413;28;19921;-60
2022/12/13 08:32:03;;;;;;;;;;;;;;;-147.11;100.00;61570.13;5049403;28;20086;-59
2022/12/13 08:34:28;;;;;;;;;;;;;;;-147.11;100.00;61570.13;5071309;28;20439;-60
2022/12/13 08:36:54;;;;;;;;;;;;;;;-147.11;100.00;61570.13;5069966;28;20015;-57
2022/12/13 08:39:19;;;;;;;;;;;;;;;-147.11;100.00;61570.13;5076154;28;19916;-58
2022/12/13 08:41:44;;;;;;;;;;;;;;;-147.11;100.00;61570.13;5073125;28;19921;-60
2022/12/13 08:44:10;;;;;;;;;;;;;;;-147.11;100.00;61570.13;5069364;28;19963;-57
2022/12/13 08:46:35;;;;;;;;;;;;;;;-147.11;100.00;61570.13;5066395;28;19963;-60
2022/12/13 08:49:01;;;;;;;;;;;;;;;-147.11;100.00;61570.13;5069707;28;19913;-62
2022/12/13 08:51:26;;;;;;;;;;;;;;;-147.11;100.00;61570.13;5069078;28;19928;-59
2022/12/13 08:53:51;;;;;;;;;;;;;;;-147.11;100.00;61570.13;5070609;28;20385;-59
2022/12/13 08:56:19;;;;;;;;;;;;;;;-147.11;100.00;61570.13;5066667;28;19968;-62
2022/12/13 08:58:48;;;;;;;;;;;;;;;-147.11;100.00;61570.13;5073754;28;19922;-62
2022/12/13 09:01:13;;;;;;;;;;;;;;;-147.11;100.00;61570.13;5073220;28;19935;-58
2022/12/13 09:03:39;;;;;;;;;;;;;;;-147.11;100.00;61570.13;5070183;28;20387;-62
2022/12/13 09:06:05;;;;;;;;;;;;;;;-147.11;100.00;61570.13;5072206;28;19971;-60
2022/12/13 09:08:30;;;;;;;;;;;;;;;-147.11;100.00;61570.13;5068605;28;19952;-63
2022/12/13 09:10:57;;;;;;;;;;;;;;;-147.11;100.00;61570.13;5067251;28;19956;-60
2022/12/13 09:13:22;;;;;;;;;;;;;;;-147.11;100.00;61570.13;5069783;28;20406;-60
2022/12/13 09:15:48;;;;;;;;;;;;;;;-147.11;100.00;61570.13;5053556;28;19923;-60
2022/12/13 09:18:13;;;;;;;;;;;;;;;-147.11;100.00;61570.13;5076389;28;19916;-57
2022/12/13 09:20:40;;;;;;;;;;;;;;;-147.11;100.00;61570.13;5070682;28;19974;-60
2022/12/13 09:23:06;;;;;;;;;;;;;;;-147.11;100.00;61570.13;5071215;28;20000;-62
2022/12/13 09:25:32;;;;;;;;;;;;;;;-147.11;100.00;61570.13;5070070;28;20019;-58
2022/12/13 09:27:57;;;;;;;;;;;;;;;-147.11;100.00;61570.13;5070049;28;19963;-57
2022/12/13 09:30:23;;;;;;;;;;;;;;;-147.11;100.00;61570.13;5065352;28;19917;-57
2022/12/13 09:32:49;;;;;;;;;;;;;;;-147.11;100.00;61570.13;5070112;28;20426;-60
2022/12/13 09:35:15;;;;;;;;;;;;;;;-147.11;100.00;61570.13;5066229;28;19921;-60
2022/12/13 09:37:40;;;;;;;;;;;;;;;-147.11;100.00;61570.13;5066346;28;19919;-61
2022/12/13 09:40:06;;;;;;;;;;;;;;;-147.11;100.00;61570.13;5069126;28;19917;-61
2022/12/13 09:42:32;;;;;;;;;;;;;;;-147.11;100.00;61570.13;5069091;28;20375;-60
2022/12/13 09:45:02;;;;;;;;;;;;;;;-147.11;100.00;61570.13;5072545;28;19917;-59
2022/12/13 09:47:34;;;;;;;;;;;;;;;-147.11;100.00;61570.13;5068725;28;19913;-61
2022/12/13 09:50:01;;;;;;;;;;;;;;;-147.11;100.00;61570.13;5070037;28;19981;-60
2022/12/13 09:52:29;;;;;;;;;;;;;;;-147.11;100.00;61570.13;5055966;28;19944;-60
2022/12/13 09:54:56;;;;;;;;;;;;;;;-147.11;100.00;61570.13;5068192;28;20276;-61
2022/12/13 09:57:30;;;;;;;;;;;;;;;-147.11;100.00;61570.13;5071682;28;19913;-60
2022/12/13 09:59:56;;;;;;;;;;;;;;;-147.11;100.00;61570.13;5063686;28;20402;-60
2022/12/13 10:02:28;;;;;;;;;;;;;;;-147.11;100.00;61570.13;5066436;28;19944;-58
2022/12/13 10:05:02;;;;;;;;;;;;;;;-147.11;100.00;61570.13;5059167;28;19931;-60
2022/12/13 10:07:27;;;;;;;;;;;;;;;-147.11;100.00;61570.13;5069597;28;19916;-59
2022/12/13 10:09:58;;;;;;;;;;;;;;;-147.11;100.00;61570.13;5069289;28;19928;-59
2022/12/13 10:12:23;;;;;;;;;;;;;;;-147.11;100.00;61570.13;5066810;28;20003;-59
2022/12/13 10:14:51;;;;;;;;;;;;;;;-147.11;100.00;61570.13;5076356;28;20042;-59
2022/12/13 10:17:19;;;;;;;;;;;;;;;-147.11;100.00;61570.13;5077645;28;19956;-57
2022/12/13 10:19:46;;;;;;;;;;;;;;;-147.11;100.00;61570.13;5067694;28;19916;-57
2022/12/13 10:22:13;;;;;;;;;;;;;;;-147.11;100.00;61570.13;5102654;22;19932;-52
2022/12/13 10:24:47;;;;;;;;;;;;;;;-147.11;100.00;61570.13;5091154;28;19916;-53
2022/12/13 10:27:15;;;;;;;;;;;;;;;-147.11;100.00;61570.13;5091220;28;20496;-52
2022/12/13 10:29:58;;;;;;;;;;;;;;;-147.11;100.00;61570.13;5092776;28;19957;-52
2022/12/13 10:32:23;;;;;;;;;;;;;;;-147.11;100.00;61570.13;5082904;28;19974;-52
2022/12/13 10:34:49;;;;;;;;;;;;;;;-147.11;100.00;61570.13;5074243;28;20438;-53
2022/12/13 10:37:23;;;;;;;;;;;;;;;-147.11;100.00;61570.13;5073504;28;20503;-52
2022/12/13 10:39:48;;;;;;;;;;;;;;;-147.11;100.00;61570.13;5079598;28;19913;-52
2022/12/13 10:42:19;;;;;;;;;;;;;;;-147.11;100.00;61570.13;5058265;28;19917;-52
2022/12/13 10:44:44;;;;;;;;;;;;;;;-147.11;100.00;61570.13;5072783;28;19920;-53
2022/12/13 10:47:14;;;;;;;;;;;;;;;-147.11;100.00;61570.13;5086226;28;19920;-51
2022/12/13 10:49:46;;;;;;;;;;;;;;;-147.11;100.00;61570.13;5055187;28;19924;-53
2022/12/13 10:52:30;;;;;;;;;;;;;;;-147.11;100.00;61570.13;5068984;28;19924;-53
2022/12/13 10:54:57;;;;;;;;;;;;;;;-147.11;100.00;61570.13;5077679;28;19916;-52
2022/12/13 10:57:23;;;;;;;;;;;;;;;-147.11;100.00;61570.13;5085119;28;19959;-53
2022/12/13 10:59:49;;;;;;;;;;;;;;;-147.11;100.00;61570.13;5077352;28;19917;-52
2022/12/13 11:02:26;;;;;;;;;;;;;;;-147.11;100.00;61570.13;5080303;28;19928;-53
2022/12/13 11:04:52;;;;;;;;;;;;;;;-147.11;100.00;61570.13;5070336;28;20011;-52
2022/12/13 11:07:35;;;;;;;;;;;;;;;-147.11;100.00;61570.13;5076961;28;20070;-52
2022/12/13 11:10:16;;;;;;;;;;;;;;;-147.11;100.00;61570.13;5075584;28;19924;-52
2022/12/13 11:12:41;;;;;;;;;;;;;;;-147.11;100.00;61570.13;5076699;28;20265;-51
2022/12/13 11:15:13;;;;;;;;;;;;;;;-147.11;100.00;61570.13;5069847;28;19917;-52
2022/12/13 11:17:45;;;;;;;;;;;;;;;-147.11;100.00;61570.13;5073074;28;20590;-53
2022/12/13 11:20:20;;;;;;;;;;;;;;;-147.11;100.00;61570.13;5072670;28;19962;-52
2022/12/13 11:22:45;;;;;;;;;;;;;;;-147.11;100.00;61570.13;5075763;28;19912;-51
2022/12/13 11:25:25;;;;;;;;;;;;;;;-147.11;100.00;61570.13;5074607;28;19924;-53
2022/12/13 11:27:50;;;;;;;;;;;;;;;-147.11;100.00;61570.13;5064691;28;19924;-52
2022/12/13 11:30:21;;;;;;;;;;;;;;;-147.11;100.00;61570.13;5075026;28;19913;-52
2022/12/13 11:32:54;;;;;;;;;;;;;;;-147.11;100.00;61570.13;5069906;28;19924;-52
2022/12/13 11:35:25;;;;;;;;;;;;;;;-147.11;100.00;61570.13;5069283;28;19916;-52
2022/12/13 11:38:06;;;;;;;;;;;;;;;-147.11;100.00;61570.13;5076074;28;20244;-52
2022/12/13 11:40:34;;;;;;;;;;;;;;;-147.11;100.00;61570.13;5073518;28;20023;-53
2022/12/13 11:43:18;;;;;;;;;;;;;;;-147.11;100.00;61570.13;5073195;28;19920;-53
2022/12/13 11:45:53;;;;;;;;;;;;;;;-147.11;100.00;61570.13;5074138;28;20039;-52
2022/12/13 11:48:28;;;;;;;;;;;;;;;-147.11;100.00;61570.13;5071707;28;20002;-52
2022/12/13 11:50:55;;;;;;;;;;;;;;;-147.11;100.00;61570.13;5074663;28;19916;-52
2022/12/13 11:53:29;;;;;;;;;;;;;;;-147.11;100.00;61570.13;5079811;28;19927;-52
2022/12/13 11:55:58;;;;;;;;;;;;;;;-147.11;100.00;61570.13;5071780;28;19917;-52
2022/12/13 11:58:32;;;;;;;;;;;;;;;-147.11;100.00;61570.13;5072210;28;19924;-53
2022/12/13 12:01:03;;;;;;;;;;;;;;;-147.11;100.00;61570.13;5072667;28;20411;-54
2022/12/13 12:03:35;;;;;;;;;;;;;;;-147.11;100.00;61570.13;5070699;28;20015;-53
2022/12/13 12:06:00;;;;;;;;;;;;;;;-147.11;100.00;61570.13;5067939;28;19920;-53
2022/12/13 12:08:35;;;;;;;;;;;;;;;-147.11;100.00;61570.13;5070714;28;19920;-54
2022/12/13 12:11:21;;;;;;;;;;;;;;;-147.11;100.00;61570.13;5069584;28;19916;-54
2022/12/13 12:13:51;;;;;;;;;;;;;;;-147.11;100.00;61570.13;5072264;28;19912;-53
2022/12/13 12:16:24;;;;;;;;;;;;;;;-147.11;100.00;61570.13;5076909;28;19912;-53
2022/12/13 12:18:50;;;;;;;;;;;;;;;-147.11;100.00;61570.13;5065114;28;20418;-53
2022/12/13 12:21:18;;;;;;;;;;;;;;;-147.11;100.00;61570.13;5067624;28;19950;-52
2022/12/13 12:24:07;;;;;;;;;;;;;;;-147.11;100.00;61570.13;5074979;28;19924;-53
2022/12/13 12:26:38;;;;;;;;;;;;;;;-147.11;100.00;61570.13;5075506;28;19920;-53
2022/12/13 12:29:04;;;;;;;;;;;;;;;-147.11;100.00;61570.13;5079510;28;20011;-55